sensor_id;sensor_type;location;lat;lon;timestamp;pressure;altitude;pressure_sealevel;temperature
62611;BMP280;48683;48.084;17.272;2023-07-20T00:01:56;99654.81;;;22.93
62611;BMP280;48683;48.084;17.272;2023-07-20T00:04:21;99657.50;;;22.87
62611;BMP280;48683;48.084;17.272;2023-07-20T00:06:46;99661.56;;;22.72
62611;BMP280;48683;48.084;17.272;2023-07-20T00:09:12;99671.34;;;22.78
62611;BMP280;48683;48.084;17.272;2023-07-20T00:11:37;99664.00;;;22.90
62611;BMP280;48683;48.084;17.272;2023-07-20T00:14:04;99660.94;;;23.08
62611;BMP280;48683;48.084;17.272;2023-07-20T00:16:29;99657.50;;;23.13
62611;BMP280;48683;48.084;17.272;2023-07-20T00:18:54;99647.56;;;23.15
62611;BMP280;48683;48.084;17.272;2023-07-20T00:21:19;99645.91;;;23.24
62611;BMP280;48683;48.084;17.272;2023-07-20T00:23:45;99637.47;;;23.27
62611;BMP280;48683;48.084;17.272;2023-07-20T00:26:10;99644.72;;;23.30
62611;BMP280;48683;48.084;17.272;2023-07-20T00:28:35;99643.38;;;23.20
62611;BMP280;48683;48.084;17.272;2023-07-20T00:31:00;99648.69;;;23.29
62611;BMP280;48683;48.084;17.272;2023-07-20T00:33:26;99647.47;;;23.30
62611;BMP280;48683;48.084;17.272;2023-07-20T00:35:51;99657.59;;;23.24
62611;BMP280;48683;48.084;17.272;2023-07-20T00:38:16;99649.31;;;23.13
62611;BMP280;48683;48.084;17.272;2023-07-20T00:40:42;99651.03;;;23.10
62611;BMP280;48683;48.084;17.272;2023-07-20T00:43:07;99653.25;;;23.12
62611;BMP280;48683;48.084;17.272;2023-07-20T00:45:33;99651.50;;;23.09
62611;BMP280;48683;48.084;17.272;2023-07-20T00:47:58;99656.00;;;23.12
62611;BMP280;48683;48.084;17.272;2023-07-20T00:50:24;99652.91;;;22.99
62611;BMP280;48683;48.084;17.272;2023-07-20T00:52:50;99651.66;;;23.00
62611;BMP280;48683;48.084;17.272;2023-07-20T00:55:16;99653.81;;;22.90
62611;BMP280;48683;48.084;17.272;2023-07-20T00:57:41;99648.84;;;22.68
62611;BMP280;48683;48.084;17.272;2023-07-20T01:00:07;99655.38;;;22.77
62611;BMP280;48683;48.084;17.272;2023-07-20T01:02:32;99651.09;;;22.50
62611;BMP280;48683;48.084;17.272;2023-07-20T01:04:57;99662.03;;;22.50
62611;BMP280;48683;48.084;17.272;2023-07-20T01:08:06;99677.13;;;22.65
62611;BMP280;48683;48.084;17.272;2023-07-20T01:12:55;99668.44;;;22.27
62611;BMP280;48683;48.084;17.272;2023-07-20T01:15:21;99667.84;;;22.37
62611;BMP280;48683;48.084;17.272;2023-07-20T01:17:46;99671.41;;;22.43
62611;BMP280;48683;48.084;17.272;2023-07-20T01:20:15;99663.88;;;22.38
62611;BMP280;48683;48.084;17.272;2023-07-20T01:23:07;99660.88;;;22.56
62611;BMP280;48683;48.084;17.272;2023-07-20T01:30:42;99661.22;;;22.64
62611;BMP280;48683;48.084;17.272;2023-07-20T01:33:08;99647.47;;;22.58
62611;BMP280;48683;48.084;17.272;2023-07-20T01:35:34;99650.19;;;22.58
62611;BMP280;48683;48.084;17.272;2023-07-20T01:38:01;99640.69;;;22.54
62611;BMP280;48683;48.084;17.272;2023-07-20T01:40:26;99645.06;;;22.66
62611;BMP280;48683;48.084;17.272;2023-07-20T01:42:52;99649.50;;;22.63
62611;BMP280;48683;48.084;17.272;2023-07-20T01:45:17;99653.47;;;22.62
62611;BMP280;48683;48.084;17.272;2023-07-20T01:47:43;99648.25;;;22.64
62611;BMP280;48683;48.084;17.272;2023-07-20T01:50:08;99640.22;;;22.55
62611;BMP280;48683;48.084;17.272;2023-07-20T01:52:34;99648.75;;;22.63
62611;BMP280;48683;48.084;17.272;2023-07-20T01:54:59;99655.06;;;22.69
62611;BMP280;48683;48.084;17.272;2023-07-20T01:57:24;99657.97;;;22.65
62611;BMP280;48683;48.084;17.272;2023-07-20T01:59:49;99667.50;;;22.70
62611;BMP280;48683;48.084;17.272;2023-07-20T02:02:14;99672.31;;;22.75
62611;BMP280;48683;48.084;17.272;2023-07-20T02:04:40;99676.53;;;22.76
62611;BMP280;48683;48.084;17.272;2023-07-20T02:07:05;99684.47;;;22.74
62611;BMP280;48683;48.084;17.272;2023-07-20T02:09:30;99683.72;;;22.74
62611;BMP280;48683;48.084;17.272;2023-07-20T02:11:55;99696.63;;;22.73
62611;BMP280;48683;48.084;17.272;2023-07-20T02:14:21;99694.19;;;22.75
62611;BMP280;48683;48.084;17.272;2023-07-20T02:16:47;99692.66;;;22.74
62611;BMP280;48683;48.084;17.272;2023-07-20T02:19:17;99694.66;;;22.74
62611;BMP280;48683;48.084;17.272;2023-07-20T02:21:42;99698.16;;;22.74
62611;BMP280;48683;48.084;17.272;2023-07-20T02:24:07;99685.16;;;22.69
62611;BMP280;48683;48.084;17.272;2023-07-20T02:26:32;99687.19;;;22.74
62611;BMP280;48683;48.084;17.272;2023-07-20T02:28:58;99683.34;;;22.66
62611;BMP280;48683;48.084;17.272;2023-07-20T02:31:23;99694.94;;;22.76
62611;BMP280;48683;48.084;17.272;2023-07-20T02:33:48;99692.88;;;22.70
62611;BMP280;48683;48.084;17.272;2023-07-20T02:36:13;99702.44;;;22.81
62611;BMP280;48683;48.084;17.272;2023-07-20T02:38:38;99704.72;;;22.82
62611;BMP280;48683;48.084;17.272;2023-07-20T02:41:04;99705.19;;;22.81
62611;BMP280;48683;48.084;17.272;2023-07-20T02:43:29;99701.50;;;22.84
62611;BMP280;48683;48.084;17.272;2023-07-20T02:45:54;99703.63;;;22.74
62611;BMP280;48683;48.084;17.272;2023-07-20T02:48:19;99706.56;;;22.70
62611;BMP280;48683;48.084;17.272;2023-07-20T02:50:45;99717.63;;;22.82
62611;BMP280;48683;48.084;17.272;2023-07-20T02:53:10;99730.72;;;22.72
62611;BMP280;48683;48.084;17.272;2023-07-20T02:55:35;99745.31;;;22.69
62611;BMP280;48683;48.084;17.272;2023-07-20T02:58:00;99739.34;;;22.50
62611;BMP280;48683;48.084;17.272;2023-07-20T03:00:26;99746.38;;;22.57
62611;BMP280;48683;48.084;17.272;2023-07-20T03:02:51;99755.47;;;22.48
62611;BMP280;48683;48.084;17.272;2023-07-20T03:05:20;99748.97;;;22.46
62611;BMP280;48683;48.084;17.272;2023-07-20T03:07:45;99744.91;;;22.41
62611;BMP280;48683;48.084;17.272;2023-07-20T03:10:11;99747.00;;;22.46
62611;BMP280;48683;48.084;17.272;2023-07-20T03:12:36;99749.25;;;22.48
62611;BMP280;48683;48.084;17.272;2023-07-20T03:15:02;99750.22;;;22.45
62611;BMP280;48683;48.084;17.272;2023-07-20T03:17:27;99758.56;;;22.56
62611;BMP280;48683;48.084;17.272;2023-07-20T03:19:52;99750.28;;;22.50
62611;BMP280;48683;48.084;17.272;2023-07-20T03:22:17;99757.13;;;22.60
62611;BMP280;48683;48.084;17.272;2023-07-20T03:24:43;99760.94;;;22.48
62611;BMP280;48683;48.084;17.272;2023-07-20T03:27:08;99765.16;;;22.49
62611;BMP280;48683;48.084;17.272;2023-07-20T03:29:33;99756.50;;;22.51
62611;BMP280;48683;48.084;17.272;2023-07-20T03:31:59;99777.72;;;22.56
62611;BMP280;48683;48.084;17.272;2023-07-20T03:34:24;99778.19;;;22.54
62611;BMP280;48683;48.084;17.272;2023-07-20T03:36:50;99775.00;;;22.41
62611;BMP280;48683;48.084;17.272;2023-07-20T03:39:15;99787.25;;;22.46
62611;BMP280;48683;48.084;17.272;2023-07-20T03:41:40;99789.56;;;22.53
62611;BMP280;48683;48.084;17.272;2023-07-20T03:44:05;99798.28;;;22.51
62611;BMP280;48683;48.084;17.272;2023-07-20T03:46:30;99795.66;;;22.42
62611;BMP280;48683;48.084;17.272;2023-07-20T03:48:56;99800.16;;;22.45
62611;BMP280;48683;48.084;17.272;2023-07-20T03:51:21;99802.03;;;22.54
62611;BMP280;48683;48.084;17.272;2023-07-20T03:53:46;99805.72;;;22.51
62611;BMP280;48683;48.084;17.272;2023-07-20T03:56:11;99794.03;;;22.50
62611;BMP280;48683;48.084;17.272;2023-07-20T03:58:36;99814.47;;;22.55
62611;BMP280;48683;48.084;17.272;2023-07-20T04:01:02;99809.09;;;22.60
62611;BMP280;48683;48.084;17.272;2023-07-20T04:03:27;99814.28;;;22.58
62611;BMP280;48683;48.084;17.272;2023-07-20T04:05:55;99816.81;;;22.62
62611;BMP280;48683;48.084;17.272;2023-07-20T04:08:22;99809.97;;;22.52
62611;BMP280;48683;48.084;17.272;2023-07-20T04:10:47;99815.03;;;22.59
62611;BMP280;48683;48.084;17.272;2023-07-20T04:13:12;99822.22;;;22.56
62611;BMP280;48683;48.084;17.272;2023-07-20T04:15:38;99820.97;;;22.57
62611;BMP280;48683;48.084;17.272;2023-07-20T04:18:03;99827.94;;;22.73
62611;BMP280;48683;48.084;17.272;2023-07-20T04:20:29;99825.53;;;22.81
62611;BMP280;48683;48.084;17.272;2023-07-20T04:22:54;99833.09;;;22.86
62611;BMP280;48683;48.084;17.272;2023-07-20T04:25:19;99825.69;;;22.72
62611;BMP280;48683;48.084;17.272;2023-07-20T04:27:45;99836.50;;;22.81
62611;BMP280;48683;48.084;17.272;2023-07-20T04:30:11;99833.84;;;22.86
62611;BMP280;48683;48.084;17.272;2023-07-20T04:32:36;99837.69;;;22.94
62611;BMP280;48683;48.084;17.272;2023-07-20T04:35:05;99838.28;;;22.84
62611;BMP280;48683;48.084;17.272;2023-07-20T04:37:30;99831.84;;;22.87
62611;BMP280;48683;48.084;17.272;2023-07-20T04:39:56;99853.75;;;22.87
62611;BMP280;48683;48.084;17.272;2023-07-20T04:42:21;99850.81;;;22.90
62611;BMP280;48683;48.084;17.272;2023-07-20T04:44:46;99852.03;;;22.89
62611;BMP280;48683;48.084;17.272;2023-07-20T04:47:11;99842.19;;;22.97
62611;BMP280;48683;48.084;17.272;2023-07-20T04:49:36;99847.41;;;22.95
62611;BMP280;48683;48.084;17.272;2023-07-20T04:52:02;99846.09;;;22.91
62611;BMP280;48683;48.084;17.272;2023-07-20T04:54:27;99839.38;;;22.92
62611;BMP280;48683;48.084;17.272;2023-07-20T04:56:53;99847.31;;;22.90
62611;BMP280;48683;48.084;17.272;2023-07-20T04:59:18;99849.09;;;22.93
62611;BMP280;48683;48.084;17.272;2023-07-20T05:01:44;99845.44;;;22.81
62611;BMP280;48683;48.084;17.272;2023-07-20T05:04:09;99851.47;;;22.85
62611;BMP280;48683;48.084;17.272;2023-07-20T05:06:34;99854.81;;;22.75
62611;BMP280;48683;48.084;17.272;2023-07-20T05:08:59;99863.66;;;22.84
62611;BMP280;48683;48.084;17.272;2023-07-20T05:11:24;99860.34;;;22.80
62611;BMP280;48683;48.084;17.272;2023-07-20T05:13:50;99861.59;;;22.79
62611;BMP280;48683;48.084;17.272;2023-07-20T05:16:15;99870.84;;;22.82
62611;BMP280;48683;48.084;17.272;2023-07-20T05:18:40;99872.16;;;22.86
62611;BMP280;48683;48.084;17.272;2023-07-20T05:21:05;99870.00;;;22.76
62611;BMP280;48683;48.084;17.272;2023-07-20T05:23:31;99883.34;;;22.88
62611;BMP280;48683;48.084;17.272;2023-07-20T05:25:56;99872.59;;;22.85
62611;BMP280;48683;48.084;17.272;2023-07-20T05:28:22;99876.09;;;22.85
62611;BMP280;48683;48.084;17.272;2023-07-20T05:30:47;99872.22;;;22.92
62611;BMP280;48683;48.084;17.272;2023-07-20T05:33:13;99869.28;;;22.95
62611;BMP280;48683;48.084;17.272;2023-07-20T05:35:38;99868.53;;;22.95
62611;BMP280;48683;48.084;17.272;2023-07-20T05:38:03;99873.72;;;22.93
62611;BMP280;48683;48.084;17.272;2023-07-20T05:40:29;99878.53;;;22.98
62611;BMP280;48683;48.084;17.272;2023-07-20T05:42:54;99865.66;;;23.04
62611;BMP280;48683;48.084;17.272;2023-07-20T05:45:22;99872.09;;;23.01
62611;BMP280;48683;48.084;17.272;2023-07-20T05:47:47;99874.81;;;23.01
62611;BMP280;48683;48.084;17.272;2023-07-20T05:50:12;99870.66;;;23.05
62611;BMP280;48683;48.084;17.272;2023-07-20T05:52:39;99871.69;;;23.08
62611;BMP280;48683;48.084;17.272;2023-07-20T05:55:05;99874.41;;;23.08
62611;BMP280;48683;48.084;17.272;2023-07-20T05:57:30;99873.75;;;23.13
62611;BMP280;48683;48.084;17.272;2023-07-20T05:59:56;99877.03;;;23.17
62611;BMP280;48683;48.084;17.272;2023-07-20T06:02:21;99875.38;;;23.25
62611;BMP280;48683;48.084;17.272;2023-07-20T06:04:46;99889.84;;;23.26
62611;BMP280;48683;48.084;17.272;2023-07-20T06:07:11;99891.69;;;23.34
62611;BMP280;48683;48.084;17.272;2023-07-20T06:09:37;99888.13;;;23.28
62611;BMP280;48683;48.084;17.272;2023-07-20T06:12:02;99898.44;;;23.39
62611;BMP280;48683;48.084;17.272;2023-07-20T06:14:27;99901.16;;;23.53
62611;BMP280;48683;48.084;17.272;2023-07-20T06:16:52;99904.69;;;23.59
62611;BMP280;48683;48.084;17.272;2023-07-20T06:19:17;99907.09;;;23.72
62611;BMP280;48683;48.084;17.272;2023-07-20T06:21:43;99909.94;;;23.83
62611;BMP280;48683;48.084;17.272;2023-07-20T06:24:08;99906.41;;;24.29
62611;BMP280;48683;48.084;17.272;2023-07-20T06:26:33;99894.34;;;24.15
62611;BMP280;48683;48.084;17.272;2023-07-20T06:29:04;99899.22;;;24.31
62611;BMP280;48683;48.084;17.272;2023-07-20T06:31:29;99889.84;;;24.43
62611;BMP280;48683;48.084;17.272;2023-07-20T06:33:54;99898.63;;;24.53
62611;BMP280;48683;48.084;17.272;2023-07-20T06:36:19;99891.69;;;24.63
62611;BMP280;48683;48.084;17.272;2023-07-20T06:38:44;99897.81;;;24.84
62611;BMP280;48683;48.084;17.272;2023-07-20T06:41:10;99900.66;;;24.95
62611;BMP280;48683;48.084;17.272;2023-07-20T06:43:35;99885.47;;;24.99
62611;BMP280;48683;48.084;17.272;2023-07-20T06:46:00;99891.53;;;25.15
62611;BMP280;48683;48.084;17.272;2023-07-20T06:48:25;99891.41;;;25.40
62611;BMP280;48683;48.084;17.272;2023-07-20T06:50:50;99887.47;;;25.58
62611;BMP280;48683;48.084;17.272;2023-07-20T06:53:16;99883.25;;;25.68
62611;BMP280;48683;48.084;17.272;2023-07-20T06:55:42;99872.91;;;25.41
62611;BMP280;48683;48.084;17.272;2023-07-20T06:58:08;99886.41;;;25.39
62611;BMP280;48683;48.084;17.272;2023-07-20T07:00:33;99878.91;;;25.39
62611;BMP280;48683;48.084;17.272;2023-07-20T07:02:58;99872.59;;;25.22
62611;BMP280;48683;48.084;17.272;2023-07-20T07:05:23;99878.38;;;25.30
62611;BMP280;48683;48.084;17.272;2023-07-20T07:07:49;99878.88;;;25.34
62611;BMP280;48683;48.084;17.272;2023-07-20T07:10:14;99876.75;;;25.01
62611;BMP280;48683;48.084;17.272;2023-07-20T07:12:39;99876.69;;;24.90
62611;BMP280;48683;48.084;17.272;2023-07-20T07:15:05;99860.44;;;24.86
62611;BMP280;48683;48.084;17.272;2023-07-20T07:17:33;99884.53;;;25.08
62611;BMP280;48683;48.084;17.272;2023-07-20T07:19:58;99882.34;;;25.23
62611;BMP280;48683;48.084;17.272;2023-07-20T07:22:23;99872.91;;;25.35
62611;BMP280;48683;48.084;17.272;2023-07-20T07:24:49;99880.44;;;25.51
62611;BMP280;48683;48.084;17.272;2023-07-20T07:27:14;99891.00;;;25.64
62611;BMP280;48683;48.084;17.272;2023-07-20T07:29:41;99890.22;;;25.58
62611;BMP280;48683;48.084;17.272;2023-07-20T07:32:06;99879.03;;;25.67
62611;BMP280;48683;48.084;17.272;2023-07-20T07:34:32;99897.78;;;25.85
62611;BMP280;48683;48.084;17.272;2023-07-20T07:36:59;99890.09;;;26.06
62611;BMP280;48683;48.084;17.272;2023-07-20T07:39:24;99884.63;;;26.28
62611;BMP280;48683;48.084;17.272;2023-07-20T07:41:49;99874.06;;;26.16
62611;BMP280;48683;48.084;17.272;2023-07-20T07:44:15;99881.34;;;26.13
62611;BMP280;48683;48.084;17.272;2023-07-20T07:46:40;99869.59;;;26.13
62611;BMP280;48683;48.084;17.272;2023-07-20T07:49:06;99879.59;;;26.43
62611;BMP280;48683;48.084;17.272;2023-07-20T07:51:32;99876.59;;;26.53
62611;BMP280;48683;48.084;17.272;2023-07-20T07:53:57;99877.03;;;26.79
62611;BMP280;48683;48.084;17.272;2023-07-20T07:56:22;99886.00;;;27.07
62611;BMP280;48683;48.084;17.272;2023-07-20T07:58:50;99869.50;;;27.07
62611;BMP280;48683;48.084;17.272;2023-07-20T08:01:19;99877.53;;;27.00
62611;BMP280;48683;48.084;17.272;2023-07-20T08:03:44;99877.53;;;26.77
62611;BMP280;48683;48.084;17.272;2023-07-20T08:06:12;99876.81;;;26.88
62611;BMP280;48683;48.084;17.272;2023-07-20T08:08:37;99883.50;;;27.09
62611;BMP280;48683;48.084;17.272;2023-07-20T08:11:02;99891.44;;;27.24
62611;BMP280;48683;48.084;17.272;2023-07-20T08:13:27;99882.78;;;27.03
62611;BMP280;48683;48.084;17.272;2023-07-20T08:15:52;99893.97;;;27.16
62611;BMP280;48683;48.084;17.272;2023-07-20T08:18:18;99885.97;;;27.13
62611;BMP280;48683;48.084;17.272;2023-07-20T08:20:44;99887.78;;;26.82
62611;BMP280;48683;48.084;17.272;2023-07-20T08:23:09;99877.31;;;26.59
62611;BMP280;48683;48.084;17.272;2023-07-20T08:25:36;99885.88;;;26.50
62611;BMP280;48683;48.084;17.272;2023-07-20T08:28:01;99878.84;;;26.54
62611;BMP280;48683;48.084;17.272;2023-07-20T08:30:27;99878.88;;;26.37
62611;BMP280;48683;48.084;17.272;2023-07-20T08:33:04;99874.59;;;26.31
62611;BMP280;48683;48.084;17.272;2023-07-20T08:35:29;99878.34;;;26.50
62611;BMP280;48683;48.084;17.272;2023-07-20T08:37:54;99880.31;;;26.88
62611;BMP280;48683;48.084;17.272;2023-07-20T08:40:19;99874.22;;;27.12
62611;BMP280;48683;48.084;17.272;2023-07-20T08:42:45;99870.19;;;27.19
62611;BMP280;48683;48.084;17.272;2023-07-20T08:45:10;99867.94;;;27.23
62611;BMP280;48683;48.084;17.272;2023-07-20T08:47:37;99880.34;;;27.41
62611;BMP280;48683;48.084;17.272;2023-07-20T08:50:03;99864.28;;;27.56
62611;BMP280;48683;48.084;17.272;2023-07-20T08:52:31;99868.16;;;27.77
62611;BMP280;48683;48.084;17.272;2023-07-20T08:54:59;99874.34;;;27.89
62611;BMP280;48683;48.084;17.272;2023-07-20T08:57:28;99867.41;;;27.76
62611;BMP280;48683;48.084;17.272;2023-07-20T08:59:53;99867.19;;;28.10
62611;BMP280;48683;48.084;17.272;2023-07-20T09:02:19;99878.25;;;28.40
62611;BMP280;48683;48.084;17.272;2023-07-20T09:04:46;99874.63;;;28.50
62611;BMP280;48683;48.084;17.272;2023-07-20T09:07:12;99873.75;;;28.61
62611;BMP280;48683;48.084;17.272;2023-07-20T09:09:40;99877.50;;;28.39
62611;BMP280;48683;48.084;17.272;2023-07-20T09:12:12;99870.34;;;28.49
62611;BMP280;48683;48.084;17.272;2023-07-20T09:14:38;99867.66;;;28.68
62611;BMP280;48683;48.084;17.272;2023-07-20T09:17:03;99867.38;;;28.47
62611;BMP280;48683;48.084;17.272;2023-07-20T09:19:28;99861.28;;;28.54
62611;BMP280;48683;48.084;17.272;2023-07-20T09:21:53;99868.78;;;28.29
62611;BMP280;48683;48.084;17.272;2023-07-20T09:24:19;99868.06;;;28.53
62611;BMP280;48683;48.084;17.272;2023-07-20T09:26:45;99864.91;;;28.44
62611;BMP280;48683;48.084;17.272;2023-07-20T09:29:10;99865.59;;;28.50
62611;BMP280;48683;48.084;17.272;2023-07-20T09:31:36;99872.53;;;28.56
62611;BMP280;48683;48.084;17.272;2023-07-20T09:34:01;99859.59;;;28.46
62611;BMP280;48683;48.084;17.272;2023-07-20T09:36:28;99867.63;;;28.73
62611;BMP280;48683;48.084;17.272;2023-07-20T09:38:53;99875.31;;;29.05
62611;BMP280;48683;48.084;17.272;2023-07-20T09:41:19;99867.78;;;29.05
62611;BMP280;48683;48.084;17.272;2023-07-20T09:43:44;99864.66;;;29.14
62611;BMP280;48683;48.084;17.272;2023-07-20T09:46:10;99867.50;;;29.09
62611;BMP280;48683;48.084;17.272;2023-07-20T09:48:35;99867.88;;;29.18
62611;BMP280;48683;48.084;17.272;2023-07-20T09:51:00;99876.31;;;29.26
62611;BMP280;48683;48.084;17.272;2023-07-20T09:53:26;99882.84;;;29.29
62611;BMP280;48683;48.084;17.272;2023-07-20T09:55:52;99872.59;;;29.23
62611;BMP280;48683;48.084;17.272;2023-07-20T09:58:18;99864.13;;;29.40
62611;BMP280;48683;48.084;17.272;2023-07-20T10:00:44;99853.75;;;29.03
62611;BMP280;48683;48.084;17.272;2023-07-20T10:03:16;99859.34;;;28.98
62611;BMP280;48683;48.084;17.272;2023-07-20T10:05:43;99853.50;;;28.83
62611;BMP280;48683;48.084;17.272;2023-07-20T10:08:11;99858.66;;;28.67
62611;BMP280;48683;48.084;17.272;2023-07-20T10:10:36;99857.50;;;28.82
62611;BMP280;48683;48.084;17.272;2023-07-20T10:13:02;99863.91;;;28.71
62611;BMP280;48683;48.084;17.272;2023-07-20T10:15:39;99864.53;;;28.83
62611;BMP280;48683;48.084;17.272;2023-07-20T10:20:31;99864.09;;;28.49
62611;BMP280;48683;48.084;17.272;2023-07-20T10:22:56;99881.16;;;28.17
62611;BMP280;48683;48.084;17.272;2023-07-20T10:25:22;99882.50;;;28.05
62611;BMP280;48683;48.084;17.272;2023-07-20T10:27:47;99878.06;;;27.97
62611;BMP280;48683;48.084;17.272;2023-07-20T10:30:13;99883.72;;;28.10
62611;BMP280;48683;48.084;17.272;2023-07-20T10:32:39;99889.97;;;28.46
62611;BMP280;48683;48.084;17.272;2023-07-20T10:35:11;99879.03;;;28.35
62611;BMP280;48683;48.084;17.272;2023-07-20T10:37:53;99882.28;;;28.87
62611;BMP280;48683;48.084;17.272;2023-07-20T10:40:31;99879.56;;;28.57
62611;BMP280;48683;48.084;17.272;2023-07-20T10:42:58;99882.16;;;28.20
62611;BMP280;48683;48.084;17.272;2023-07-20T10:48:04;99876.75;;;28.03
62611;BMP280;48683;48.084;17.272;2023-07-20T10:50:31;99877.88;;;27.83
62611;BMP280;48683;48.084;17.272;2023-07-20T10:53:16;99881.22;;;27.71
62611;BMP280;48683;48.084;17.272;2023-07-20T10:55:42;99876.97;;;27.70
62611;BMP280;48683;48.084;17.272;2023-07-20T10:58:12;99879.50;;;28.09
62611;BMP280;48683;48.084;17.272;2023-07-20T11:03:30;99876.03;;;28.87
62611;BMP280;48683;48.084;17.272;2023-07-20T11:05:56;99880.88;;;29.23
62611;BMP280;48683;48.084;17.272;2023-07-20T11:08:38;99869.50;;;29.08
62611;BMP280;48683;48.084;17.272;2023-07-20T11:13:54;99869.00;;;29.10
62611;BMP280;48683;48.084;17.272;2023-07-20T11:16:23;99868.63;;;29.19
62611;BMP280;48683;48.084;17.272;2023-07-20T11:18:56;99869.59;;;29.21
62611;BMP280;48683;48.084;17.272;2023-07-20T11:21:22;99855.94;;;29.10
62611;BMP280;48683;48.084;17.272;2023-07-20T11:23:47;99857.88;;;29.15
62611;BMP280;48683;48.084;17.272;2023-07-20T11:26:13;99863.97;;;29.33
62611;BMP280;48683;48.084;17.272;2023-07-20T11:28:38;99860.28;;;29.43
62611;BMP280;48683;48.084;17.272;2023-07-20T11:31:04;99856.56;;;29.41
62611;BMP280;48683;48.084;17.272;2023-07-20T11:33:29;99858.31;;;29.19
62611;BMP280;48683;48.084;17.272;2023-07-20T11:35:54;99855.53;;;29.44
62611;BMP280;48683;48.084;17.272;2023-07-20T11:38:19;99858.09;;;29.74
62611;BMP280;48683;48.084;17.272;2023-07-20T11:40:45;99845.16;;;29.82
62611;BMP280;48683;48.084;17.272;2023-07-20T11:43:11;99838.53;;;29.72
62611;BMP280;48683;48.084;17.272;2023-07-20T11:45:37;99835.31;;;29.86
62611;BMP280;48683;48.084;17.272;2023-07-20T11:48:02;99828.66;;;29.76
62611;BMP280;48683;48.084;17.272;2023-07-20T11:50:27;99835.44;;;29.94
62611;BMP280;48683;48.084;17.272;2023-07-20T11:52:53;99833.03;;;30.03
62611;BMP280;48683;48.084;17.272;2023-07-20T11:55:19;99827.06;;;30.12
62611;BMP280;48683;48.084;17.272;2023-07-20T11:58:00;99842.59;;;30.47
62611;BMP280;48683;48.084;17.272;2023-07-20T12:00:25;99827.28;;;30.46
62611;BMP280;48683;48.084;17.272;2023-07-20T12:02:50;99824.97;;;30.19
62611;BMP280;48683;48.084;17.272;2023-07-20T12:05:18;99830.41;;;30.24
62611;BMP280;48683;48.084;17.272;2023-07-20T12:07:44;99819.97;;;30.17
62611;BMP280;48683;48.084;17.272;2023-07-20T12:10:12;99825.88;;;29.95
62611;BMP280;48683;48.084;17.272;2023-07-20T12:12:38;99832.59;;;29.99
62611;BMP280;48683;48.084;17.272;2023-07-20T12:17:54;99822.38;;;29.76
62611;BMP280;48683;48.084;17.272;2023-07-20T12:20:30;99807.09;;;29.56
62611;BMP280;48683;48.084;17.272;2023-07-20T12:22:59;99809.31;;;29.57
62611;BMP280;48683;48.084;17.272;2023-07-20T12:25:32;99817.50;;;30.13
62611;BMP280;48683;48.084;17.272;2023-07-20T12:27:59;99812.47;;;30.44
62611;BMP280;48683;48.084;17.272;2023-07-20T12:30:25;99812.16;;;30.60
62611;BMP280;48683;48.084;17.272;2023-07-20T12:32:50;99804.78;;;31.16
62611;BMP280;48683;48.084;17.272;2023-07-20T12:35:16;99804.25;;;31.04
62611;BMP280;48683;48.084;17.272;2023-07-20T12:37:41;99784.00;;;30.96
62611;BMP280;48683;48.084;17.272;2023-07-20T12:40:07;99795.34;;;31.32
62611;BMP280;48683;48.084;17.272;2023-07-20T12:42:35;99788.38;;;30.78
62611;BMP280;48683;48.084;17.272;2023-07-20T12:45:00;99782.94;;;30.86
62611;BMP280;48683;48.084;17.272;2023-07-20T12:47:26;99779.44;;;30.72
62611;BMP280;48683;48.084;17.272;2023-07-20T12:49:51;99792.63;;;30.92
62611;BMP280;48683;48.084;17.272;2023-07-20T12:52:16;99792.19;;;31.15
62611;BMP280;48683;48.084;17.272;2023-07-20T12:54:41;99783.69;;;30.86
62611;BMP280;48683;48.084;17.272;2023-07-20T12:57:07;99775.78;;;30.90
62611;BMP280;48683;48.084;17.272;2023-07-20T12:59:32;99781.06;;;31.28
62611;BMP280;48683;48.084;17.272;2023-07-20T13:01:57;99781.41;;;31.24
62611;BMP280;48683;48.084;17.272;2023-07-20T13:04:22;99777.56;;;31.48
62611;BMP280;48683;48.084;17.272;2023-07-20T13:06:48;99766.97;;;31.05
62611;BMP280;48683;48.084;17.272;2023-07-20T13:09:13;99771.84;;;31.12
62611;BMP280;48683;48.084;17.272;2023-07-20T13:11:38;99774.28;;;31.16
62611;BMP280;48683;48.084;17.272;2023-07-20T13:14:03;99780.94;;;31.33
62611;BMP280;48683;48.084;17.272;2023-07-20T13:16:29;99772.34;;;31.58
62611;BMP280;48683;48.084;17.272;2023-07-20T13:18:54;99774.34;;;31.57
62611;BMP280;48683;48.084;17.272;2023-07-20T13:21:19;99763.88;;;31.63
62611;BMP280;48683;48.084;17.272;2023-07-20T13:23:47;99760.69;;;31.80
62611;BMP280;48683;48.084;17.272;2023-07-20T13:26:12;99768.59;;;32.17
62611;BMP280;48683;48.084;17.272;2023-07-20T13:28:38;99753.19;;;32.09
62611;BMP280;48683;48.084;17.272;2023-07-20T13:31:03;99754.03;;;31.41
62611;BMP280;48683;48.084;17.272;2023-07-20T13:33:28;99761.00;;;31.01
62611;BMP280;48683;48.084;17.272;2023-07-20T13:35:54;99764.38;;;31.41
62611;BMP280;48683;48.084;17.272;2023-07-20T13:38:19;99755.16;;;31.25
62611;BMP280;48683;48.084;17.272;2023-07-20T13:40:45;99756.63;;;31.60
62611;BMP280;48683;48.084;17.272;2023-07-20T13:43:10;99759.06;;;31.84
62611;BMP280;48683;48.084;17.272;2023-07-20T13:45:36;99762.78;;;31.87
62611;BMP280;48683;48.084;17.272;2023-07-20T13:48:02;99761.53;;;31.95
62611;BMP280;48683;48.084;17.272;2023-07-20T13:50:27;99752.69;;;31.35
62611;BMP280;48683;48.084;17.272;2023-07-20T13:52:53;99764.25;;;31.46
62611;BMP280;48683;48.084;17.272;2023-07-20T13:55:18;99754.59;;;31.40
62611;BMP280;48683;48.084;17.272;2023-07-20T13:57:43;99756.28;;;30.96
62611;BMP280;48683;48.084;17.272;2023-07-20T14:00:09;99764.94;;;31.39
62611;BMP280;48683;48.084;17.272;2023-07-20T14:02:36;99757.09;;;31.17
62611;BMP280;48683;48.084;17.272;2023-07-20T14:05:02;99746.06;;;31.04
62611;BMP280;48683;48.084;17.272;2023-07-20T14:07:27;99757.75;;;31.44
62611;BMP280;48683;48.084;17.272;2023-07-20T14:09:52;99758.81;;;31.54
62611;BMP280;48683;48.084;17.272;2023-07-20T14:12:17;99759.94;;;31.79